Time;durP1;ratioP1;P1;durP2;ratioP2;P2;SDS_P1;SDS_P2;PMS_P1;PMS_P2;Temp;Humidity;BMP_temperature;BMP_pressure;BME280_temperature;BME280_humidity;BME280_pressure;Samples;Min_cycle;Max_cycle;Signal;HPM_P1;HPM_P2
2023/03/05 00:01:13;;;;;;;9.73;6.63;;;9.20;96.70;;;;;;5063945;28;20044;-72
2023/03/05 00:03:42;;;;;;;9.38;6.80;;;9.10;96.70;;;;;;5061346;28;20491;-72
2023/03/05 00:06:12;;;;;;;9.98;6.70;;;9.20;96.70;;;;;;5062137;28;20400;-72
2023/03/05 00:08:40;;;;;;;10.30;6.80;;;9.10;96.70;;;;;;5066329;28;20047;-72
2023/03/05 00:11:10;;;;;;;10.55;6.55;;;9.20;96.70;;;;;;5058885;28;20110;-72
2023/03/05 00:13:39;;;;;;;9.45;6.82;;;9.20;96.70;;;;;;5056115;28;20060;-72
2023/03/05 00:16:09;;;;;;;11.63;7.70;;;9.10;96.70;;;;;;5067372;28;20043;-73
2023/03/05 00:18:38;;;;;;;12.05;7.72;;;9.10;96.70;;;;;;5061326;28;20055;-72
2023/03/05 00:21:21;;;;;;;13.18;8.10;;;9.20;96.70;;;;;;5053908;28;20048;-72
2023/03/05 00:23:51;;;;;;;12.32;8.73;;;8.80;96.70;;;;;;5071979;28;20128;-73
2023/03/05 00:26:21;;;;;;;15.73;8.50;;;8.80;96.70;;;;;;5072339;28;20046;-73
2023/03/05 00:28:51;;;;;;;11.65;7.50;;;8.70;96.70;;;;;;5060467;28;20040;-72
2023/03/05 00:31:21;;;;;;;13.27;8.10;;;8.70;96.70;;;;;;5060609;28;20053;-73
2023/03/05 00:33:52;;;;;;;12.35;8.27;;;8.80;96.70;;;;;;5064466;28;20037;-72
2023/03/05 00:36:26;;;;;;;14.98;8.40;;;8.60;96.70;;;;;;5064552;28;20052;-72
2023/03/05 00:38:55;;;;;;;12.75;8.57;;;8.60;96.70;;;;;;5067721;28;20127;-72
2023/03/05 00:41:23;;;;;;;14.20;8.45;;;8.60;96.70;;;;;;5065433;28;20033;-72
2023/03/05 00:43:52;;;;;;;11.93;8.20;;;8.70;96.70;;;;;;5066628;28;20055;-72
2023/03/05 00:46:20;;;;;;;12.68;8.55;;;8.60;96.70;;;;;;5066685;28;20105;-72
2023/03/05 00:48:49;;;;;;;13.35;8.05;;;8.50;96.70;;;;;;5058867;28;20449;-72
2023/03/05 00:51:18;;;;;;;12.10;8.05;;;8.40;96.70;;;;;;5044943;28;20036;-72
2023/03/05 00:53:48;;;;;;;14.25;8.50;;;8.40;96.70;;;;;;5062242;28;20049;-72
2023/03/05 00:56:16;;;;;;;15.77;8.23;;;8.50;96.70;;;;;;5067168;28;20047;-72
2023/03/05 00:58:44;;;;;;;12.00;8.77;;;8.50;96.70;;;;;;5065385;28;20048;-72
2023/03/05 01:01:13;;;;;;;12.93;8.32;;;8.50;96.70;;;;;;5059595;28;20086;-72
2023/03/05 01:03:41;;;;;;;14.18;8.85;;;8.50;96.70;;;;;;5063206;28;20037;-72
2023/03/05 01:06:13;;;;;;;13.93;8.57;;;8.40;96.70;;;;;;5063393;28;20040;-72
2023/03/05 01:08:42;;;;;;;12.68;7.88;;;8.40;96.70;;;;;;5061259;28;20148;-73
2023/03/05 01:11:12;;;;;;;12.70;7.97;;;8.30;96.70;;;;;;5042262;28;20060;-72
2023/03/05 01:13:41;;;;;;;14.63;8.07;;;8.30;96.70;;;;;;5063765;28;20555;-70
2023/03/05 01:16:09;;;;;;;15.18;8.57;;;8.20;96.70;;;;;;5063294;28;20037;-70
2023/03/05 01:18:39;;;;;;;15.43;8.57;;;8.30;96.70;;;;;;5055733;28;20055;-70
2023/03/05 01:21:07;;;;;;;15.25;8.45;;;8.20;96.70;;;;;;5064473;28;20048;-71
2023/03/05 01:23:36;;;;;;;16.10;8.75;;;8.30;96.70;;;;;;5046828;28;20443;-70
2023/03/05 01:26:05;;;;;;;11.95;7.72;;;8.30;96.70;;;;;;5057256;28;20132;-70
2023/03/05 01:28:36;;;;;;;14.07;8.30;;;8.40;96.70;;;;;;5062068;28;20593;-70
2023/03/05 01:31:09;;;;;;;11.85;7.53;;;8.30;96.70;;;;;;5054243;28;20147;-71
2023/03/05 01:33:38;;;;;;;13.82;7.65;;;8.40;96.70;;;;;;5061879;28;20607;-71
2023/03/05 01:36:11;;;;;;;13.10;7.68;;;8.40;96.70;;;;;;5061623;28;20040;-70
2023/03/05 01:38:39;;;;;;;12.80;7.05;;;8.40;96.70;;;;;;5049775;28;20103;-70
2023/03/05 01:41:08;;;;;;;10.95;6.22;;;8.30;96.70;;;;;;5058603;28;20033;-70
2023/03/05 01:43:38;;;;;;;8.70;5.65;;;8.30;96.70;;;;;;5056918;28;20075;-70
2023/03/05 01:46:28;;;;;;;11.00;5.25;;;8.20;96.70;;;;;;5060296;28;20043;-71
2023/03/05 01:49:03;;;;;;;9.10;5.30;;;8.10;96.70;;;;;;5058958;28;20037;-70
2023/03/05 01:51:36;;;;;;;6.90;4.40;;;8.10;96.70;;;;;;5067631;28;20634;-70
2023/03/05 01:54:06;;;;;;;9.18;4.55;;;8.20;96.70;;;;;;5066807;28;20084;-70
2023/03/05 01:56:34;;;;;;;7.68;4.80;;;8.40;96.70;;;;;;5063976;28;20314;-71
2023/03/05 01:59:04;;;;;;;7.40;3.92;;;8.20;96.70;;;;;;5062654;28;20116;-70
2023/03/05 02:01:37;;;;;;;7.82;4.65;;;8.20;96.70;;;;;;5056817;28;20401;-70
2023/03/05 02:04:07;;;;;;;8.07;4.53;;;8.20;96.70;;;;;;5054941;28;20059;-70
2023/03/05 02:06:36;;;;;;;5.88;4.18;;;8.10;96.70;;;;;;5060110;28;20032;-70
2023/03/05 02:09:04;;;;;;;7.35;4.55;;;7.90;96.70;;;;;;5064832;28;20541;-70
2023/03/05 02:11:33;;;;;;;7.35;4.38;;;8.10;96.70;;;;;;5064372;28;20677;-71
2023/03/05 02:14:03;;;;;;;7.78;4.40;;;8.10;96.70;;;;;;5063312;28;20102;-70
2023/03/05 02:16:35;;;;;;;7.80;4.28;;;8.10;96.70;;;;;;5067933;28;20505;-70
2023/03/05 02:19:06;;;;;;;6.70;4.63;;;8.00;96.70;;;;;;5062393;28;20094;-70
2023/03/05 02:21:40;;;;;;;6.88;4.38;;;7.80;96.70;;;;;;5060856;28;20044;-70
2023/03/05 02:24:11;;;;;;;6.45;4.40;;;7.80;96.70;;;;;;5062181;28;20071;-70
2023/03/05 02:26:41;;;;;;;7.88;4.85;;;7.70;96.70;;;;;;5062753;28;20749;-70
2023/03/05 02:29:13;;;;;;;9.90;5.15;;;7.80;96.70;;;;;;5061722;28;20044;-71
2023/03/05 02:31:42;;;;;;;7.55;4.40;;;7.70;96.70;;;;;;5065664;28;20033;-71
2023/03/05 02:34:12;;;;;;;8.95;4.68;;;7.60;96.70;;;;;;5058799;28;20059;-70
2023/03/05 02:36:42;;;;;;;6.70;4.32;;;7.60;96.70;;;;;;5059541;28;20045;-70
2023/03/05 02:39:11;;;;;;;7.28;4.30;;;7.70;96.70;;;;;;5059926;28;20043;-70
2023/03/05 02:41:39;;;;;;;6.68;4.75;;;7.80;96.70;;;;;;5063279;28;20044;-70
2023/03/05 02:44:08;;;;;;;7.47;4.85;;;7.70;96.70;;;;;;5067815;28;20052;-70
2023/03/05 02:46:36;;;;;;;9.27;5.55;;;7.50;96.70;;;;;;5061632;28;20479;-70
2023/03/05 02:49:04;;;;;;;11.05;6.03;;;7.50;96.70;;;;;;5059767;28;20056;-70
2023/03/05 02:51:32;;;;;;;10.80;6.35;;;7.50;96.70;;;;;;5060944;28;20057;-71
2023/03/05 02:54:03;;;;;;;8.88;5.97;;;7.40;96.70;;;;;;5049820;28;20057;-71
2023/03/05 02:56:31;;;;;;;10.13;5.95;;;7.50;96.70;;;;;;5054901;28;20060;-71
2023/03/05 02:59:01;;;;;;;9.05;6.45;;;7.40;96.70;;;;;;5053272;28;20052;-70
2023/03/05 03:01:29;;;;;;;9.80;6.05;;;7.40;96.70;;;;;;5055700;28;20058;-71
2023/03/05 03:03:57;;;;;;;12.10;7.35;;;7.40;96.70;;;;;;5055957;28;20133;-70
2023/03/05 03:06:25;;;;;;;15.45;8.48;;;7.30;96.70;;;;;;5054162;28;20116;-71
2023/03/05 03:08:54;;;;;;;13.32;8.43;;;7.00;96.70;;;;;;5057788;28;20098;-70
2023/03/05 03:11:24;;;;;;;19.77;9.32;;;7.20;96.70;;;;;;5060854;28;20061;-70
2023/03/05 03:13:52;;;;;;;13.82;8.07;;;7.00;96.70;;;;;;5058806;28;20090;-70
2023/03/05 03:16:20;;;;;;;11.95;7.90;;;7.20;96.70;;;;;;5059501;28;20028;-71
2023/03/05 03:18:48;;;;;;;12.80;8.02;;;7.30;96.70;;;;;;5053324;28;20048;-70
2023/03/05 03:21:18;;;;;;;10.85;6.82;;;7.30;96.70;;;;;;5056402;28;20049;-70
2023/03/05 03:23:46;;;;;;;10.63;7.07;;;7.30;96.70;;;;;;5051850;28;20068;-70
2023/03/05 03:26:14;;;;;;;11.52;7.07;;;7.20;96.70;;;;;;5052765;28;20120;-70
2023/03/05 03:28:44;;;;;;;13.60;7.72;;;7.20;96.70;;;;;;5058114;28;20072;-70
2023/03/05 03:31:12;;;;;;;12.48;7.30;;;7.30;96.70;;;;;;5053730;28;20070;-71
2023/03/05 03:33:40;;;;;;;11.05;6.80;;;7.30;96.70;;;;;;5053551;28;20109;-70
2023/03/05 03:36:09;;;;;;;10.50;6.90;;;7.30;96.70;;;;;;5058299;28;20059;-70
2023/03/05 03:38:37;;;;;;;9.82;6.63;;;7.30;96.70;;;;;;5058877;28;20037;-70
2023/03/05 03:41:06;;;;;;;10.18;6.97;;;7.30;96.70;;;;;;5053299;28;20264;-70
2023/03/05 03:43:35;;;;;;;9.20;6.63;;;7.10;96.70;;;;;;5061230;28;20051;-70
2023/03/05 03:46:06;;;;;;;10.93;6.47;;;7.10;96.70;;;;;;5059218;28;20610;-70
2023/03/05 03:48:34;;;;;;;8.82;5.95;;;7.10;96.70;;;;;;5059530;28;20554;-71
2023/03/05 03:51:05;;;;;;;10.98;6.15;;;7.10;96.70;;;;;;5063304;28;20041;-70
2023/03/05 03:53:33;;;;;;;8.43;5.82;;;7.10;96.70;;;;;;5060053;28;20045;-70
2023/03/05 03:56:02;;;;;;;8.82;6.97;;;7.10;96.70;;;;;;5062549;28;20045;-71
2023/03/05 03:58:35;;;;;;;7.90;5.50;;;7.10;96.70;;;;;;5063879;28;20040;-70
2023/03/05 04:01:05;;;;;;;11.23;6.15;;;7.00;96.70;;;;;;5060971;28;20346;-70
2023/03/05 04:03:33;;;;;;;11.95;6.30;;;7.00;96.70;;;;;;5057834;28;20043;-70
2023/03/05 04:06:01;;;;;;;11.70;5.85;;;7.00;96.70;;;;;;5060232;28;20059;-70
2023/03/05 04:08:29;;;;;;;9.30;6.55;;;7.00;96.70;;;;;;5057917;28;20056;-70
2023/03/05 04:10:59;;;;;;;8.48;6.03;;;7.00;96.70;;;;;;5057846;28;20387;-70
2023/03/05 04:13:27;;;;;;;9.73;6.28;;;6.80;96.70;;;;;;5063156;28;20216;-70
2023/03/05 04:15:55;;;;;;;9.55;5.97;;;6.80;96.70;;;;;;5058857;28;20378;-70
2023/03/05 04:18:25;;;;;;;11.50;7.07;;;6.80;96.70;;;;;;5052845;28;20579;-70
2023/03/05 04:20:53;;;;;;;9.93;6.63;;;6.80;96.70;;;;;;5054497;28;20414;-70
2023/03/05 04:23:21;;;;;;;10.85;6.57;;;6.80;96.70;;;;;;5062835;28;20041;-71
2023/03/05 04:25:49;;;;;;;11.05;6.13;;;6.60;96.70;;;;;;5050160;28;20066;-70
2023/03/05 04:28:17;;;;;;;8.48;5.35;;;6.50;96.70;;;;;;5051779;28;20107;-70
2023/03/05 04:30:45;;;;;;;9.25;5.90;;;6.60;96.70;;;;;;5061566;28;20045;-70
2023/03/05 04:33:13;;;;;;;12.43;5.90;;;6.60;96.70;;;;;;5054621;28;20076;-70
2023/03/05 04:35:43;;;;;;;10.68;6.05;;;6.70;96.70;;;;;;5056149;28;20102;-70
2023/03/05 04:38:11;;;;;;;9.38;5.28;;;6.70;96.70;;;;;;5055050;28;20052;-69
2023/03/05 04:40:39;;;;;;;10.18;5.63;;;6.80;96.70;;;;;;5062220;28;20078;-72
2023/03/05 04:43:07;;;;;;;12.05;6.50;;;6.90;96.70;;;;;;5050292;28;20049;-72
2023/03/05 04:45:35;;;;;;;9.57;6.30;;;6.90;96.70;;;;;;5065659;28;20046;-72
2023/03/05 04:48:04;;;;;;;9.27;6.18;;;6.70;96.70;;;;;;5042960;28;20053;-72
2023/03/05 04:50:32;;;;;;;10.05;5.82;;;6.50;96.70;;;;;;5062596;28;20383;-72
2023/03/05 04:53:10;;;;;;;10.98;6.80;;;6.60;96.70;;;;;;5068343;28;20041;-72
2023/03/05 04:55:38;;;;;;;9.48;6.10;;;6.60;96.70;;;;;;5065288;28;20040;-72
2023/03/05 04:58:06;;;;;;;10.73;6.75;;;6.40;96.70;;;;;;5063594;28;20079;-72
2023/03/05 05:00:34;;;;;;;10.80;6.22;;;6.40;96.70;;;;;;5054410;28;20083;-73
2023/03/05 05:03:02;;;;;;;8.02;5.65;;;6.50;96.70;;;;;;5058629;28;20106;-72
2023/03/05 05:05:30;;;;;;;10.30;5.93;;;6.60;96.70;;;;;;5068417;28;20036;-72
2023/03/05 05:07:58;;;;;;;10.23;5.97;;;6.60;96.70;;;;;;5062755;28;20506;-72
2023/03/05 05:10:28;;;;;;;7.97;5.95;;;6.60;96.70;;;;;;5068976;28;20044;-72
2023/03/05 05:12:56;;;;;;;9.80;6.28;;;6.60;96.70;;;;;;5062828;28;20072;-72
2023/03/05 05:15:24;;;;;;;10.55;6.78;;;6.40;96.70;;;;;;5064202;28;20044;-71
2023/03/05 05:17:52;;;;;;;11.85;6.60;;;6.50;96.70;;;;;;5059524;28;20079;-72
2023/03/05 05:20:20;;;;;;;10.43;7.13;;;6.40;96.70;;;;;;5064031;28;20517;-72
2023/03/05 05:22:48;;;;;;;11.82;6.88;;;6.30;96.70;;;;;;5057773;28;20037;-72
2023/03/05 05:25:16;;;;;;;12.52;6.60;;;6.20;96.70;;;;;;5057555;28;20049;-72
2023/03/05 05:27:46;;;;;;;9.82;6.57;;;6.20;96.70;;;;;;5062622;28;20048;-71
2023/03/05 05:30:14;;;;;;;10.73;6.47;;;6.20;96.70;;;;;;5055469;28;20124;-72
2023/03/05 05:32:42;;;;;;;11.30;6.70;;;6.10;96.70;;;;;;5058182;28;20041;-72
2023/03/05 05:35:10;;;;;;;9.98;6.32;;;6.10;96.70;;;;;;5057890;28;20041;-72
2023/03/05 05:37:38;;;;;;;9.10;6.28;;;6.00;96.70;;;;;;5068336;28;20048;-72
2023/03/05 05:40:08;;;;;;;10.70;6.03;;;6.00;96.70;;;;;;5060061;28;20111;-72
2023/03/05 05:42:36;;;;;;;9.38;5.80;;;6.00;96.70;;;;;;5062498;28;20834;-72
2023/03/05 05:45:07;;;;;;;11.27;6.22;;;6.00;96.70;;;;;;5060226;28;20040;-72
2023/03/05 05:47:35;;;;;;;8.98;5.80;;;6.10;96.70;;;;;;5056083;28;20048;-72
2023/03/05 05:50:04;;;;;;;8.82;5.45;;;6.20;96.70;;;;;;5055855;28;20110;-72
2023/03/05 05:52:32;;;;;;;10.07;6.10;;;6.20;96.70;;;;;;5063508;28;20808;-73
2023/03/05 05:55:00;;;;;;;9.35;5.95;;;6.20;96.70;;;;;;5052727;28;20044;-73
2023/03/05 05:57:28;;;;;;;14.38;6.35;;;6.20;96.70;;;;;;5064481;28;20506;-72
2023/03/05 06:00:16;;;;;;;10.07;5.88;;;6.30;96.70;;;;;;5022601;28;20048;-72
2023/03/05 06:02:45;;;;;;;9.57;6.18;;;6.20;96.70;;;;;;5038985;28;20055;-72
2023/03/05 06:05:14;;;;;;;17.63;9.90;;;6.30;96.70;;;;;;5039820;28;20051;-72
2023/03/05 06:07:42;;;;;;;30.15;12.60;;;6.30;96.70;;;;;;5038873;28;20135;-72
2023/03/05 06:10:11;;;;;;;19.35;10.32;;;6.20;96.70;;;;;;5023190;28;20167;-72
2023/03/05 06:12:39;;;;;;;14.73;8.75;;;6.10;96.70;;;;;;5039211;28;20053;-72
2023/03/05 06:15:08;;;;;;;11.70;7.45;;;6.10;96.70;;;;;;5022691;28;20049;-71
2023/03/05 06:17:37;;;;;;;13.23;7.60;;;6.10;96.70;;;;;;5038749;28;20461;-72
2023/03/05 06:20:06;;;;;;;37.40;23.25;;;6.30;96.70;;;;;;5021375;28;20048;-72
2023/03/05 06:22:36;;;;;;;86.95;49.85;;;6.20;96.70;;;;;;5038568;28;20059;-72
2023/03/05 06:25:05;;;;;;;71.75;42.88;;;6.30;96.70;;;;;;5023055;28;20049;-72
2023/03/05 06:27:34;;;;;;;71.25;42.13;;;6.30;96.70;;;;;;5054933;28;20138;-71
2023/03/05 06:30:02;;;;;;;41.17;24.00;;;6.40;96.70;;;;;;5040677;28;20053;-72
2023/03/05 06:32:30;;;;;;;30.67;18.48;;;6.40;96.70;;;;;;5020985;28;20168;-72
2023/03/05 06:34:59;;;;;;;24.77;15.00;;;6.40;96.70;;;;;;5037624;28;20049;-72
2023/03/05 06:37:28;;;;;;;18.98;11.32;;;6.40;96.70;;;;;;5023624;28;20043;-72
2023/03/05 06:40:02;;;;;;;16.65;10.10;;;6.40;96.70;;;;;;5037561;28;20047;-72
2023/03/05 06:42:30;;;;;;;12.32;7.97;;;6.40;96.70;;;;;;5038089;28;20300;-72
2023/03/05 06:44:58;;;;;;;11.98;7.55;;;6.50;96.70;;;;;;5022235;28;20044;-71
2023/03/05 06:47:27;;;;;;;9.52;6.63;;;6.40;96.70;;;;;;5037958;28;20069;-72
2023/03/05 06:49:54;;;;;;;23.35;14.48;;;6.40;96.70;;;;;;5038393;28;20053;-72
2023/03/05 06:52:24;;;;;;;40.13;23.13;;;6.30;96.70;;;;;;5038308;28;20509;-71
2023/03/05 06:54:54;;;;;;;35.78;23.10;;;6.40;96.70;;;;;;5039154;28;20553;-72
2023/03/05 06:57:22;;;;;;;42.92;25.67;;;6.50;96.70;;;;;;5005712;28;20522;-72
2023/03/05 06:59:51;;;;;;;36.70;23.13;;;6.60;96.70;;;;;;5022621;28;20146;-72
2023/03/05 07:02:18;;;;;;;27.30;16.40;;;6.50;96.70;;;;;;5021194;28;20118;-72
2023/03/05 07:04:46;;;;;;;22.92;14.68;;;6.60;96.70;;;;;;5022303;28;21434;-72
2023/03/05 07:07:14;;;;;;;17.88;12.15;;;6.60;96.70;;;;;;5037735;28;20053;-72
2023/03/05 07:09:44;;;;;;;16.38;11.10;;;6.80;96.70;;;;;;5020808;28;20037;-72
2023/03/05 07:12:12;;;;;;;13.50;9.10;;;6.80;96.70;;;;;;5046174;28;20041;-72
2023/03/05 07:14:40;;;;;;;13.20;8.75;;;6.80;96.70;;;;;;5035097;28;20503;-71
2023/03/05 07:17:08;;;;;;;11.65;7.78;;;6.70;96.70;;;;;;5038590;28;20491;-71
2023/03/05 07:19:37;;;;;;;11.23;7.90;;;6.90;96.70;;;;;;5023881;28;20686;-71
2023/03/05 07:22:06;;;;;;;13.05;7.75;;;7.00;96.70;;;;;;5021499;28;20044;-71
2023/03/05 07:24:34;;;;;;;10.25;7.03;;;6.90;96.70;;;;;;5009149;28;20049;-71
2023/03/05 07:27:04;;;;;;;11.30;6.82;;;7.00;96.70;;;;;;5035911;28;20577;-71
2023/03/05 07:29:31;;;;;;;9.95;6.80;;;7.10;96.70;;;;;;5019272;28;20065;-72
2023/03/05 07:31:59;;;;;;;9.95;6.40;;;7.10;96.70;;;;;;5022909;28;20656;-72
2023/03/05 07:34:27;;;;;;;9.05;6.22;;;7.30;96.70;;;;;;5033981;28;20079;-72
2023/03/05 07:36:55;;;;;;;8.95;6.03;;;7.30;96.70;;;;;;5035053;28;20152;-72
2023/03/05 07:39:23;;;;;;;9.85;6.05;;;7.40;96.70;;;;;;5038464;28;21309;-71
2023/03/05 07:41:51;;;;;;;8.40;6.25;;;7.40;96.70;;;;;;5038701;28;20049;-71
2023/03/05 07:44:30;;;;;;;9.65;6.50;;;7.50;96.70;;;;;;5055354;28;20226;-71
2023/03/05 07:46:58;;;;;;;10.88;6.28;;;7.60;96.70;;;;;;5058813;28;20044;-72
2023/03/05 07:49:34;;;;;;;9.13;6.65;;;7.80;96.70;;;;;;5056124;28;20121;-72
2023/03/05 07:52:02;;;;;;;12.30;6.75;;;7.80;96.70;;;;;;5052813;28;20070;-71
2023/03/05 07:54:30;;;;;;;10.93;6.40;;;7.80;96.70;;;;;;5057634;28;20056;-72
2023/03/05 07:56:58;;;;;;;10.68;7.50;;;7.90;96.70;;;;;;5052411;28;20198;-71
2023/03/05 07:59:26;;;;;;;9.23;6.05;;;8.00;96.70;;;;;;5053728;28;20052;-72
2023/03/05 08:01:56;;;;;;;12.05;6.80;;;8.00;96.70;;;;;;5061616;28;20110;-71
2023/03/05 08:04:24;;;;;;;10.50;5.75;;;8.10;96.70;;;;;;5053594;28;20431;-72
2023/03/05 08:06:52;;;;;;;9.27;6.10;;;8.20;96.70;;;;;;5050671;28;20131;-71
2023/03/05 08:09:20;;;;;;;9.23;6.00;;;8.20;96.70;;;;;;5058336;28;20048;-72
2023/03/05 08:11:48;;;;;;;9.18;6.10;;;8.20;96.70;;;;;;5053848;28;20037;-72
2023/03/05 08:14:16;;;;;;;8.00;5.88;;;8.40;96.70;;;;;;5056685;28;20117;-72
2023/03/05 08:16:45;;;;;;;10.43;6.72;;;8.50;96.70;;;;;;5056391;28;20068;-72
2023/03/05 08:19:19;;;;;;;8.95;5.85;;;8.60;96.70;;;;;;5058447;28;20055;-72
2023/03/05 08:21:47;;;;;;;10.63;6.35;;;8.70;96.70;;;;;;5059343;28;20059;-72
2023/03/05 08:24:15;;;;;;;9.15;6.53;;;8.70;96.70;;;;;;5055174;28;20516;-72
2023/03/05 08:26:43;;;;;;;8.88;6.40;;;8.80;96.70;;;;;;5055775;28;20048;-71
2023/03/05 08:29:11;;;;;;;10.02;6.75;;;8.80;96.70;;;;;;5055130;28;20806;-72
2023/03/05 08:31:43;;;;;;;8.60;6.28;;;8.90;96.70;;;;;;5060289;28;20045;-72
2023/03/05 08:34:11;;;;;;;9.65;6.10;;;9.00;96.70;;;;;;5063897;28;20102;-72
2023/03/05 08:36:41;;;;;;;12.82;6.88;;;9.10;96.70;;;;;;5065646;28;20733;-72
2023/03/05 08:39:09;;;;;;;9.43;6.75;;;9.10;96.70;;;;;;5051947;28;20068;-72
2023/03/05 08:41:37;;;;;;;10.75;6.97;;;9.10;96.70;;;;;;5061278;28;20051;-72
2023/03/05 08:44:05;;;;;;;10.23;7.10;;;9.20;96.70;;;;;;5061206;28;20049;-72
2023/03/05 08:46:33;;;;;;;9.70;7.05;;;9.20;96.70;;;;;;5062628;28;20179;-72
2023/03/05 08:49:01;;;;;;;8.68;6.35;;;9.30;96.70;;;;;;5064711;28;20588;-72
2023/03/05 08:51:29;;;;;;;9.18;6.00;;;9.40;96.70;;;;;;5077118;28;20044;-72
2023/03/05 08:54:00;;;;;;;8.77;6.60;;;9.40;96.70;;;;;;5081379;28;20036;-72
2023/03/05 08:56:30;;;;;;;8.85;6.70;;;9.50;96.70;;;;;;5062942;28;20559;-70
2023/03/05 08:58:58;;;;;;;11.13;7.85;;;9.60;96.70;;;;;;5060284;28;20032;-71
2023/03/05 09:01:26;;;;;;;9.73;6.45;;;9.70;96.70;;;;;;5056889;28;20041;-70
2023/03/05 09:03:54;;;;;;;11.40;7.22;;;9.70;96.70;;;;;;5070281;28;20676;-71
2023/03/05 09:06:23;;;;;;;10.82;8.13;;;9.70;96.70;;;;;;5061109;28;20055;-72
2023/03/05 09:08:51;;;;;;;13.38;7.50;;;9.80;96.70;;;;;;5082951;28;20489;-71
2023/03/05 09:11:21;;;;;;;10.88;7.85;;;9.90;96.70;;;;;;5076273;28;20040;-72
2023/03/05 09:13:49;;;;;;;11.85;8.68;;;10.00;96.70;;;;;;5061917;28;20053;-71
2023/03/05 09:16:19;;;;;;;11.85;7.93;;;10.00;96.70;;;;;;5060378;28;20061;-72
2023/03/05 09:18:47;;;;;;;13.82;8.55;;;10.00;96.70;;;;;;5060495;28;20040;-71
2023/03/05 09:21:16;;;;;;;16.00;8.07;;;10.10;96.70;;;;;;5051554;28;20465;-71
2023/03/05 09:23:46;;;;;;;13.57;8.75;;;10.20;96.70;;;;;;5069353;28;20113;-71
2023/03/05 09:26:18;;;;;;;17.48;9.25;;;10.30;96.70;;;;;;5053159;28;20506;-71
2023/03/05 09:28:47;;;;;;;11.80;7.65;;;10.40;96.70;;;;;;5048894;28;20528;-71
2023/03/05 09:31:16;;;;;;;11.00;8.45;;;10.40;96.70;;;;;;5056560;28;20059;-72
2023/03/05 09:33:46;;;;;;;12.40;8.05;;;10.50;96.70;;;;;;5072296;28;20128;-70
2023/03/05 09:36:19;;;;;;;14.60;8.50;;;10.60;96.70;;;;;;5070285;28;20046;-71
2023/03/05 09:38:47;;;;;;;14.85;8.32;;;10.70;96.70;;;;;;5070486;28;20499;-71
2023/03/05 09:41:25;;;;;;;12.32;8.68;;;10.80;96.70;;;;;;5069264;28;20047;-71
2023/03/05 09:44:04;;;;;;;16.65;10.00;;;10.90;96.70;;;;;;5082876;28;20050;-71
2023/03/05 09:46:43;;;;;;;14.88;10.02;;;11.00;96.70;;;;;;5062541;28;20052;-71
2023/03/05 09:49:17;;;;;;;15.35;9.65;;;11.30;96.70;;;;;;5067921;28;20067;-71
2023/03/05 09:51:49;;;;;;;15.50;9.15;;;11.40;96.70;;;;;;5078595;28;20040;-71
2023/03/05 09:54:20;;;;;;;14.20;9.93;;;11.50;96.70;;;;;;5067629;28;20636;-71
2023/03/05 09:56:52;;;;;;;14.57;9.45;;;11.50;96.70;;;;;;5057231;28;20052;-72
2023/03/05 09:59:29;;;;;;;14.02;9.50;;;11.60;96.70;;;;;;5049852;28;20121;-71
2023/03/05 10:02:02;;;;;;;19.17;10.45;;;11.70;96.70;;;;;;5069660;28;20040;-71
2023/03/05 10:04:42;;;;;;;16.48;9.98;;;11.80;96.70;;;;;;5058707;28;20046;-72
2023/03/05 10:07:16;;;;;;;15.35;9.93;;;11.80;96.70;;;;;;5054479;28;20045;-71
2023/03/05 10:09:48;;;;;;;17.60;9.18;;;11.90;96.70;;;;;;5045614;28;20094;-74
2023/03/05 10:12:26;;;;;;;12.23;9.70;;;12.00;96.70;;;;;;5076965;28;20053;-71
2023/03/05 10:14:59;;;;;;;12.45;8.95;;;12.20;96.70;;;;;;5052961;28;20040;-71
2023/03/05 10:18:02;;;;;;;11.98;9.13;;;12.40;96.70;;;;;;5065627;28;21038;-71
2023/03/05 10:20:50;;;;;;;10.50;8.32;;;12.50;96.70;;;;;;5083255;28;20513;-71
2023/03/05 10:23:26;;;;;;;11.85;8.50;;;12.60;96.70;;;;;;5057406;28;20497;-70
2023/03/05 10:26:12;;;;;;;14.68;7.97;;;12.80;96.70;;;;;;5071561;28;20058;-71
2023/03/05 10:28:47;;;;;;;13.35;9.02;;;13.00;96.70;;;;;;5077838;28;20073;-71
2023/03/05 10:31:45;;;;;;;12.48;8.40;;;13.10;96.70;;;;;;5083309;28;20036;-70
2023/03/05 10:34:35;;;;;;;13.38;8.40;;;13.20;96.70;;;;;;5078489;28;20707;-70
2023/03/05 10:37:16;;;;;;;12.63;9.20;;;13.30;96.70;;;;;;5074439;28;20047;-71
2023/03/05 10:40:00;;;;;;;11.38;8.15;;;13.50;96.70;;;;;;5071655;28;20032;-71
2023/03/05 10:42:36;;;;;;;13.68;8.82;;;13.70;96.70;;;;;;5070424;28;20117;-71
2023/03/05 10:45:14;;;;;;;11.50;8.97;;;13.90;96.70;;;;;;5068990;28;20048;-70
2023/03/05 10:47:48;;;;;;;13.27;8.75;;;14.00;96.70;;;;;;5082557;28;20483;-71
2023/03/05 10:50:18;;;;;;;11.07;7.80;;;14.20;96.70;;;;;;5059982;28;20048;-72
2023/03/05 10:52:53;;;;;;;14.00;8.00;;;14.10;96.70;;;;;;5075005;28;20040;-71
2023/03/05 10:55:22;;;;;;;12.60;7.97;;;13.90;96.70;;;;;;5080959;28;20074;-71
2023/03/05 10:57:50;;;;;;;12.02;7.95;;;13.90;96.70;;;;;;5082606;28;20075;-72
2023/03/05 11:00:20;;;;;;;15.27;8.20;;;14.00;96.70;;;;;;5073180;28;20049;-72
2023/03/05 11:02:56;;;;;;;13.23;8.25;;;14.10;96.70;;;;;;5081103;28;21521;-73
2023/03/05 11:05:41;;;;;;;11.63;7.47;;;14.10;96.70;;;;;;5059745;28;20051;-73
2023/03/05 11:08:30;;;;;;;10.65;7.38;;;14.10;96.70;;;;;;5078018;28;20044;-73
2023/03/05 11:11:13;;;;;;;10.65;7.85;;;14.30;96.70;;;;;;5080867;28;20047;-70
2023/03/05 11:14:01;;;;;;;15.60;8.85;;;14.50;96.70;;;;;;5073112;28;20476;-76
2023/03/05 11:16:30;;;;;;;15.88;8.00;;;14.60;96.70;;;;;;5064863;28;20056;-76
2023/03/05 11:19:18;;;;;;;12.82;7.57;;;14.60;96.70;;;;;;5071222;28;20071;-73
2023/03/05 11:22:14;;;;;;;22.63;10.15;;;14.70;96.70;;;;;;5072506;28;20103;-76
2023/03/05 11:24:45;;;;;;;17.05;10.07;;;14.80;96.70;;;;;;5078616;28;20048;-76
2023/03/05 11:27:30;;;;;;;16.58;8.68;;;14.90;96.70;;;;;;5073165;28;20146;-72
2023/03/05 11:29:59;;;;;;;15.85;8.73;;;15.00;96.70;;;;;;5065610;28;20043;-72
2023/03/05 11:32:45;;;;;;;19.60;10.40;;;15.10;96.70;;;;;;5074298;28;20044;-72
2023/03/05 11:35:30;;;;;;;19.38;9.63;;;15.40;96.70;;;;;;5074581;28;20139;-72
2023/03/05 11:38:03;;;;;;;18.00;8.65;;;15.50;96.70;;;;;;5064153;28;20052;-73
2023/03/05 11:40:34;;;;;;;14.25;9.25;;;15.50;96.70;;;;;;5080112;28;20048;-73
2023/03/05 11:43:03;;;;;;;19.52;9.80;;;15.30;96.70;;;;;;5081065;28;20094;-75
2023/03/05 11:45:33;;;;;;;24.13;10.05;;;15.30;96.70;;;;;;5073193;28;20902;-75
2023/03/05 11:48:07;;;;;;;19.25;8.93;;;15.50;96.70;;;;;;5072403;28;20036;-72
2023/03/05 11:50:40;;;;;;;19.23;10.30;;;15.40;96.70;;;;;;5063825;28;20110;-75
2023/03/05 11:53:13;;;;;;;15.35;8.65;;;15.50;96.70;;;;;;5081312;28;20131;-72
2023/03/05 11:55:44;;;;;;;18.17;8.63;;;15.50;96.70;;;;;;5085142;28;20556;-72
2023/03/05 11:58:26;;;;;;;17.77;8.23;;;15.50;96.70;;;;;;5060120;28;20745;-74
2023/03/05 12:00:55;;;;;;;17.58;8.73;;;15.60;96.70;;;;;;5049013;28;20055;-72
2023/03/05 12:03:29;;;;;;;20.55;9.48;;;15.50;96.70;;;;;;5079980;28;20032;-72
2023/03/05 12:06:08;;;;;;;17.13;9.35;;;15.50;96.70;;;;;;5076362;28;20113;-72
2023/03/05 12:08:40;;;;;;;16.10;8.55;;;15.30;96.70;;;;;;5067847;28;20602;-73
2023/03/05 12:11:16;;;;;;;16.45;9.55;;;15.10;96.70;;;;;;5058440;28;20122;-72
2023/03/05 12:13:47;;;;;;;13.65;8.60;;;15.00;96.70;;;;;;5078946;28;20064;-72
2023/03/05 12:16:27;;;;;;;18.75;9.70;;;15.00;96.70;;;;;;5080619;28;20048;-71
2023/03/05 12:19:09;;;;;;;21.77;9.90;;;15.00;96.70;;;;;;5073803;28;20051;-73
2023/03/05 12:21:40;;;;;;;20.75;8.88;;;14.90;96.70;;;;;;5079887;28;20048;-72
2023/03/05 12:24:37;;;;;;;18.52;8.48;;;14.90;96.70;;;;;;5085522;28;20666;-71
2023/03/05 12:27:24;;;;;;;17.20;8.48;;;15.30;96.70;;;;;;5065479;28;20740;-72
2023/03/05 12:29:53;;;;;;;21.65;9.23;;;15.70;96.70;;;;;;5069825;28;20505;-72
2023/03/05 12:32:58;;;;;;;17.80;8.85;;;15.90;96.70;;;;;;5083742;28;20127;-73
2023/03/05 12:35:35;;;;;;;16.00;8.60;;;16.20;96.70;;;;;;5072866;28;20610;-73
2023/03/05 12:38:30;;;;;;;17.67;7.90;;;16.30;96.70;;;;;;5083829;28;20046;-72
2023/03/05 12:41:33;;;;;;;13.88;7.20;;;16.20;96.70;;;;;;5085106;28;20063;-72
2023/03/05 12:44:22;;;;;;;15.30;8.15;;;16.10;96.70;;;;;;5066153;28;20047;-72
2023/03/05 12:47:16;;;;;;;20.08;8.65;;;16.20;96.70;;;;;;5078592;28;20052;-72
2023/03/05 12:49:46;;;;;;;14.13;7.97;;;16.10;96.70;;;;;;5065468;28;20570;-73
2023/03/05 12:52:25;;;;;;;17.75;8.93;;;16.10;96.70;;;;;;5066232;28;20086;-73
2023/03/05 12:55:06;;;;;;;22.65;8.10;;;16.10;96.70;;;;;;5084769;28;20089;-72
2023/03/05 12:57:36;;;;;;;15.05;8.05;;;16.20;96.70;;;;;;5065744;28;20075;-72
2023/03/05 13:00:09;;;;;;;15.93;7.63;;;16.30;96.70;;;;;;5081414;28;20146;-73
2023/03/05 13:02:41;;;;;;;17.35;7.78;;;16.20;96.70;;;;;;5082889;28;20143;-72
2023/03/05 13:05:19;;;;;;;16.88;8.05;;;16.10;96.70;;;;;;5070830;28;20051;-72
2023/03/05 13:07:48;;;;;;;23.00;9.05;;;16.30;96.70;;;;;;5062111;28;20756;-72